sensor_id;sensor_type;location;lat;lon;timestamp;pressure;altitude;pressure_sealevel;temperature;humidity
16613;BME280;8419;52.358;9.752;2023-02-22T00:00:48;101003.00;;;19.91;40.82
16613;BME280;8419;52.358;9.752;2023-02-22T00:03:34;100999.00;;;19.88;40.88
16613;BME280;8419;52.358;9.752;2023-02-22T00:06:21;100998.00;;;19.93;40.79
16613;BME280;8419;52.358;9.752;2023-02-22T00:09:09;101001.00;;;19.87;40.90
16613;BME280;8419;52.358;9.752;2023-02-22T00:11:54;100999.00;;;19.88;40.85
16613;BME280;8419;52.358;9.752;2023-02-22T00:14:40;101002.00;;;19.85;40.89
16613;BME280;8419;52.358;9.752;2023-02-22T00:17:26;100996.00;;;19.84;40.86
16613;BME280;8419;52.358;9.752;2023-02-22T00:20:15;100994.00;;;19.85;40.88
16613;BME280;8419;52.358;9.752;2023-02-22T00:23:03;100994.00;;;19.89;40.83
16613;BME280;8419;52.358;9.752;2023-02-22T00:25:51;100997.00;;;19.80;40.92
16613;BME280;8419;52.358;9.752;2023-02-22T00:28:37;100994.00;;;19.88;40.83
16613;BME280;8419;52.358;9.752;2023-02-22T00:31:22;100995.00;;;19.82;40.94
16613;BME280;8419;52.358;9.752;2023-02-22T00:34:08;100991.00;;;19.70;41.19
16613;BME280;8419;52.358;9.752;2023-02-22T00:36:54;100988.00;;;19.52;41.61
16613;BME280;8419;52.358;9.752;2023-02-22T00:39:40;100992.00;;;19.64;41.37
16613;BME280;8419;52.358;9.752;2023-02-22T00:42:25;100984.00;;;19.50;41.67
16613;BME280;8419;52.358;9.752;2023-02-22T00:45:12;100985.00;;;19.47;41.68
16613;BME280;8419;52.358;9.752;2023-02-22T00:48:01;100973.00;;;19.47;41.62
16613;BME280;8419;52.358;9.752;2023-02-22T00:50:46;100976.00;;;19.53;41.52
16613;BME280;8419;52.358;9.752;2023-02-22T00:53:33;100963.00;;;19.66;41.26
16613;BME280;8419;52.358;9.752;2023-02-22T00:56:18;100967.00;;;19.71;40.99
16613;BME280;8419;52.358;9.752;2023-02-22T00:59:04;100961.00;;;19.54;41.18
16613;BME280;8419;52.358;9.752;2023-02-22T01:01:49;100965.00;;;19.32;41.60
16613;BME280;8419;52.358;9.752;2023-02-22T01:04:35;100964.00;;;19.44;41.21
16613;BME280;8419;52.358;9.752;2023-02-22T01:07:21;100952.00;;;19.53;41.00
16613;BME280;8419;52.358;9.752;2023-02-22T01:10:07;100952.00;;;19.32;41.14
16613;BME280;8419;52.358;9.752;2023-02-22T01:12:53;100949.00;;;19.16;41.36
16613;BME280;8419;52.358;9.752;2023-02-22T01:15:41;100938.00;;;18.97;41.49
16613;BME280;8419;52.358;9.752;2023-02-22T01:18:28;100946.00;;;18.86;41.60
16613;BME280;8419;52.358;9.752;2023-02-22T01:21:14;100938.00;;;18.64;41.86
16613;BME280;8419;52.358;9.752;2023-02-22T01:23:59;100946.00;;;18.61;41.76
16613;BME280;8419;52.358;9.752;2023-02-22T01:26:51;100942.00;;;18.52;41.87
16613;BME280;8419;52.358;9.752;2023-02-22T01:29:37;100938.00;;;18.51;41.76
16613;BME280;8419;52.358;9.752;2023-02-22T01:32:23;100946.00;;;18.46;41.78
16613;BME280;8419;52.358;9.752;2023-02-22T01:35:11;100941.00;;;18.26;42.13
16613;BME280;8419;52.358;9.752;2023-02-22T01:37:57;100937.00;;;18.10;42.36
16613;BME280;8419;52.358;9.752;2023-02-22T01:40:47;100939.00;;;18.11;42.29
16613;BME280;8419;52.358;9.752;2023-02-22T01:43:34;100935.00;;;18.03;42.40
16613;BME280;8419;52.358;9.752;2023-02-22T01:46:22;100929.00;;;18.03;42.33
16613;BME280;8419;52.358;9.752;2023-02-22T01:49:07;100930.00;;;18.00;42.32
16613;BME280;8419;52.358;9.752;2023-02-22T01:51:56;100928.00;;;17.86;42.55
16613;BME280;8419;52.358;9.752;2023-02-22T01:54:46;100920.00;;;17.49;43.31
16613;BME280;8419;52.358;9.752;2023-02-22T01:57:36;100926.00;;;17.42;43.44
16613;BME280;8419;52.358;9.752;2023-02-22T02:00:22;100919.00;;;17.39;43.46
16613;BME280;8419;52.358;9.752;2023-02-22T02:03:14;100918.00;;;17.40;43.38
16613;BME280;8419;52.358;9.752;2023-02-22T02:06:04;100917.00;;;17.62;42.94
16613;BME280;8419;52.358;9.752;2023-02-22T02:08:56;100919.00;;;17.39;43.37
16613;BME280;8419;52.358;9.752;2023-02-22T02:11:44;100909.00;;;17.25;43.64
16613;BME280;8419;52.358;9.752;2023-02-22T02:14:30;100920.00;;;17.37;43.34
16613;BME280;8419;52.358;9.752;2023-02-22T02:17:18;100911.00;;;17.25;43.44
16613;BME280;8419;52.358;9.752;2023-02-22T02:20:09;100908.00;;;17.39;43.20
16613;BME280;8419;52.358;9.752;2023-02-22T02:23:03;100907.00;;;17.38;43.14
16613;BME280;8419;52.358;9.752;2023-02-22T02:26:08;100905.00;;;17.37;43.11
16613;BME280;8419;52.358;9.752;2023-02-22T02:29:32;100909.00;;;17.33;43.19
16613;BME280;8419;52.358;9.752;2023-02-22T02:32:31;100903.00;;;17.31;43.13
16613;BME280;8419;52.358;9.752;2023-02-22T02:35:28;100902.00;;;17.23;43.12
16613;BME280;8419;52.358;9.752;2023-02-22T02:38:24;100895.00;;;17.50;42.66
16613;BME280;8419;52.358;9.752;2023-02-22T02:41:17;100898.00;;;17.33;42.89
16613;BME280;8419;52.358;9.752;2023-02-22T02:44:11;100899.00;;;17.15;43.25
16613;BME280;8419;52.358;9.752;2023-02-22T02:47:02;100894.00;;;17.12;43.28
16613;BME280;8419;52.358;9.752;2023-02-22T02:49:55;100889.00;;;17.12;43.24
16613;BME280;8419;52.358;9.752;2023-02-22T02:52:44;100890.00;;;17.14;43.13
16613;BME280;8419;52.358;9.752;2023-02-22T02:55:31;100899.00;;;17.07;43.27
16613;BME280;8419;52.358;9.752;2023-02-22T02:58:22;100889.00;;;17.09;43.12
16613;BME280;8419;52.358;9.752;2023-02-22T03:01:08;100894.00;;;17.02;43.20
16613;BME280;8419;52.358;9.752;2023-02-22T03:04:20;100892.00;;;17.03;43.12
16613;BME280;8419;52.358;9.752;2023-02-22T03:10:40;100876.00;;;16.88;43.32
16613;BME280;8419;52.358;9.752;2023-02-22T03:13:32;100874.00;;;16.77;43.51
16613;BME280;8419;52.358;9.752;2023-02-22T03:16:26;100873.00;;;16.78;43.47
16613;BME280;8419;52.358;9.752;2023-02-22T03:19:20;100876.00;;;16.59;43.82
16613;BME280;8419;52.358;9.752;2023-02-22T03:22:13;100874.00;;;16.76;43.47
16613;BME280;8419;52.358;9.752;2023-02-22T03:25:02;100863.00;;;16.55;43.74
16613;BME280;8419;52.358;9.752;2023-02-22T03:27:56;100866.00;;;16.41;44.14
16613;BME280;8419;52.358;9.752;2023-02-22T03:30:49;100855.00;;;16.49;44.01
16613;BME280;8419;52.358;9.752;2023-02-22T03:33:39;100853.00;;;16.43;44.09
16613;BME280;8419;52.358;9.752;2023-02-22T03:36:29;100855.00;;;16.71;43.48
16613;BME280;8419;52.358;9.752;2023-02-22T03:39:17;100849.00;;;16.67;43.54
16613;BME280;8419;52.358;9.752;2023-02-22T03:42:09;100847.00;;;16.70;43.42
16613;BME280;8419;52.358;9.752;2023-02-22T03:44:59;100849.00;;;16.50;43.72
16613;BME280;8419;52.358;9.752;2023-02-22T03:47:50;100845.00;;;16.38;43.97
16613;BME280;8419;52.358;9.752;2023-02-22T03:50:41;100850.00;;;16.41;44.02
16613;BME280;8419;52.358;9.752;2023-02-22T03:53:26;100852.00;;;16.58;43.47
16613;BME280;8419;52.358;9.752;2023-02-22T03:56:19;100847.00;;;16.49;43.62
16613;BME280;8419;52.358;9.752;2023-02-22T03:59:08;100847.00;;;16.39;43.81
16613;BME280;8419;52.358;9.752;2023-02-22T04:01:56;100839.00;;;16.38;43.84
16613;BME280;8419;52.358;9.752;2023-02-22T04:04:43;100841.00;;;16.31;44.00
16613;BME280;8419;52.358;9.752;2023-02-22T04:07:28;100840.00;;;16.35;43.82
16613;BME280;8419;52.358;9.752;2023-02-22T04:10:16;100835.00;;;16.31;43.93
16613;BME280;8419;52.358;9.752;2023-02-22T04:13:01;100839.00;;;16.34;43.84
16613;BME280;8419;52.358;9.752;2023-02-22T04:15:47;100837.00;;;16.05;44.36
16613;BME280;8419;52.358;9.752;2023-02-22T04:18:32;100839.00;;;15.96;44.54
16613;BME280;8419;52.358;9.752;2023-02-22T04:21:18;100828.00;;;16.15;44.03
16613;BME280;8419;52.358;9.752;2023-02-22T04:24:05;100827.00;;;15.96;44.58
16613;BME280;8419;52.358;9.752;2023-02-22T04:26:50;100822.00;;;15.93;44.69
16613;BME280;8419;52.358;9.752;2023-02-22T04:29:36;100817.00;;;15.96;44.63
16613;BME280;8419;52.358;9.752;2023-02-22T04:32:21;100821.00;;;16.00;44.57
16613;BME280;8419;52.358;9.752;2023-02-22T04:35:08;100819.00;;;16.02;44.54
16613;BME280;8419;52.358;9.752;2023-02-22T04:37:53;100827.00;;;16.29;44.02
16613;BME280;8419;52.358;9.752;2023-02-22T04:40:39;100831.00;;;16.44;43.61
16613;BME280;8419;52.358;9.752;2023-02-22T04:43:24;100825.00;;;16.12;44.45
16613;BME280;8419;52.358;9.752;2023-02-22T04:46:10;100828.00;;;16.25;44.41
16613;BME280;8419;52.358;9.752;2023-02-22T04:48:56;100824.00;;;16.35;44.42
16613;BME280;8419;52.358;9.752;2023-02-22T04:51:42;100823.00;;;16.85;43.61
16613;BME280;8419;52.358;9.752;2023-02-22T04:54:28;100829.00;;;17.02;43.50
16613;BME280;8419;52.358;9.752;2023-02-22T04:57:13;100828.00;;;17.10;43.61
16613;BME280;8419;52.358;9.752;2023-02-22T04:59:59;100823.00;;;17.22;43.60
16613;BME280;8419;52.358;9.752;2023-02-22T05:02:44;100825.00;;;17.34;43.51
16613;BME280;8419;52.358;9.752;2023-02-22T05:05:30;100820.00;;;17.37;43.51
16613;BME280;8419;52.358;9.752;2023-02-22T05:08:15;100818.00;;;17.36;43.62
16613;BME280;8419;52.358;9.752;2023-02-22T05:11:01;100824.00;;;17.43;43.52
16613;BME280;8419;52.358;9.752;2023-02-22T05:13:47;100825.00;;;17.50;43.51
16613;BME280;8419;52.358;9.752;2023-02-22T05:16:32;100824.00;;;17.54;43.53
16613;BME280;8419;52.358;9.752;2023-02-22T05:19:17;100823.00;;;17.54;43.63
16613;BME280;8419;52.358;9.752;2023-02-22T05:22:03;100820.00;;;17.55;43.67
16613;BME280;8419;52.358;9.752;2023-02-22T05:24:49;100815.00;;;17.54;43.62
16613;BME280;8419;52.358;9.752;2023-02-22T05:27:36;100810.00;;;17.16;44.21
16613;BME280;8419;52.358;9.752;2023-02-22T05:30:24;100809.00;;;17.18;43.96
16613;BME280;8419;52.358;9.752;2023-02-22T05:33:10;100807.00;;;17.17;43.73
16613;BME280;8419;52.358;9.752;2023-02-22T05:35:56;100801.00;;;17.07;43.71
16613;BME280;8419;52.358;9.752;2023-02-22T05:38:43;100801.00;;;16.97;43.74
16613;BME280;8419;52.358;9.752;2023-02-22T05:41:30;100804.00;;;16.94;43.64
16613;BME280;8419;52.358;9.752;2023-02-22T05:44:15;100803.00;;;16.92;43.58
16613;BME280;8419;52.358;9.752;2023-02-22T05:47:01;100806.00;;;17.00;43.33
16613;BME280;8419;52.358;9.752;2023-02-22T05:49:47;100807.00;;;16.87;43.66
16613;BME280;8419;52.358;9.752;2023-02-22T05:52:34;100805.00;;;16.98;43.51
16613;BME280;8419;52.358;9.752;2023-02-22T05:55:23;100796.00;;;16.88;43.72
16613;BME280;8419;52.358;9.752;2023-02-22T05:58:09;100792.00;;;17.02;43.37
16613;BME280;8419;52.358;9.752;2023-02-22T06:00:54;100790.00;;;17.07;43.30
16613;BME280;8419;52.358;9.752;2023-02-22T06:03:40;100787.00;;;17.16;43.08
16613;BME280;8419;52.358;9.752;2023-02-22T06:06:26;100791.00;;;16.98;43.45
16613;BME280;8419;52.358;9.752;2023-02-22T06:09:12;100787.00;;;17.05;43.23
16613;BME280;8419;52.358;9.752;2023-02-22T06:11:57;100785.00;;;16.99;43.23
16613;BME280;8419;52.358;9.752;2023-02-22T06:14:43;100792.00;;;16.95;43.24
16613;BME280;8419;52.358;9.752;2023-02-22T06:17:32;100791.00;;;16.90;43.25
16613;BME280;8419;52.358;9.752;2023-02-22T06:20:21;100788.00;;;16.85;43.33
16613;BME280;8419;52.358;9.752;2023-02-22T06:23:07;100787.00;;;16.83;43.32
16613;BME280;8419;52.358;9.752;2023-02-22T06:25:53;100794.00;;;16.84;43.33
16613;BME280;8419;52.358;9.752;2023-02-22T06:28:38;100784.00;;;16.81;43.42
16613;BME280;8419;52.358;9.752;2023-02-22T06:31:23;100780.00;;;16.59;43.91
16613;BME280;8419;52.358;9.752;2023-02-22T06:34:09;100787.00;;;16.94;43.27
16613;BME280;8419;52.358;9.752;2023-02-22T06:36:56;100787.00;;;17.05;43.20
16613;BME280;8419;52.358;9.752;2023-02-22T06:39:41;100785.00;;;17.15;43.10
16613;BME280;8419;52.358;9.752;2023-02-22T06:42:27;100782.00;;;17.18;43.11
16613;BME280;8419;52.358;9.752;2023-02-22T06:45:13;100777.00;;;17.23;43.10
16613;BME280;8419;52.358;9.752;2023-02-22T06:47:59;100785.00;;;17.23;43.19
16613;BME280;8419;52.358;9.752;2023-02-22T06:50:44;100783.00;;;17.25;43.27
16613;BME280;8419;52.358;9.752;2023-02-22T06:53:30;100782.00;;;17.35;43.15
16613;BME280;8419;52.358;9.752;2023-02-22T06:56:16;100789.00;;;17.36;43.24
16613;BME280;8419;52.358;9.752;2023-02-22T06:59:02;100793.00;;;17.44;43.20
16613;BME280;8419;52.358;9.752;2023-02-22T07:01:47;100784.00;;;17.53;43.11
16613;BME280;8419;52.358;9.752;2023-02-22T07:04:33;100783.00;;;17.66;42.98
16613;BME280;8419;52.358;9.752;2023-02-22T07:07:21;100786.00;;;17.73;42.93
16613;BME280;8419;52.358;9.752;2023-02-22T07:10:15;100787.00;;;17.78;42.94
16613;BME280;8419;52.358;9.752;2023-02-22T07:13:02;100790.00;;;17.87;42.89
16613;BME280;8419;52.358;9.752;2023-02-22T07:15:48;100790.00;;;17.99;42.79
16613;BME280;8419;52.358;9.752;2023-02-22T07:18:38;100788.00;;;18.17;42.53
16613;BME280;8419;52.358;9.752;2023-02-22T07:21:24;100796.00;;;18.24;42.62
16613;BME280;8419;52.358;9.752;2023-02-22T07:24:09;100791.00;;;18.33;42.55
16613;BME280;8419;52.358;9.752;2023-02-22T07:26:55;100791.00;;;18.46;42.40
16613;BME280;8419;52.358;9.752;2023-02-22T07:29:42;100785.00;;;18.50;42.46
16613;BME280;8419;52.358;9.752;2023-02-22T07:32:28;100786.00;;;18.57;42.42
16613;BME280;8419;52.358;9.752;2023-02-22T07:35:16;100790.00;;;18.61;42.43
16613;BME280;8419;52.358;9.752;2023-02-22T07:38:03;100784.00;;;18.69;42.44
16613;BME280;8419;52.358;9.752;2023-02-22T07:40:50;100778.00;;;18.81;42.24
16613;BME280;8419;52.358;9.752;2023-02-22T07:43:36;100784.00;;;18.86;42.22
16613;BME280;8419;52.358;9.752;2023-02-22T07:46:22;100782.00;;;18.90;42.21
16613;BME280;8419;52.358;9.752;2023-02-22T07:49:07;100784.00;;;18.99;42.10
16613;BME280;8419;52.358;9.752;2023-02-22T07:51:53;100785.00;;;18.98;42.20
16613;BME280;8419;52.358;9.752;2023-02-22T07:54:39;100785.00;;;19.11;42.11
16613;BME280;8419;52.358;9.752;2023-02-22T07:57:24;100785.00;;;19.22;42.08
16613;BME280;8419;52.358;9.752;2023-02-22T08:00:13;100779.00;;;19.36;41.95
16613;BME280;8419;52.358;9.752;2023-02-22T08:03:01;100782.00;;;19.51;41.84
16613;BME280;8419;52.358;9.752;2023-02-22T08:05:49;100775.00;;;19.64;41.79
16613;BME280;8419;52.358;9.752;2023-02-22T08:08:35;100777.00;;;19.76;41.73
16613;BME280;8419;52.358;9.752;2023-02-22T08:11:21;100777.00;;;19.94;41.53
16613;BME280;8419;52.358;9.752;2023-02-22T08:14:06;100768.00;;;20.00;41.51
16613;BME280;8419;52.358;9.752;2023-02-22T08:16:52;100777.00;;;20.07;41.46
16613;BME280;8419;52.358;9.752;2023-02-22T08:19:37;100774.00;;;20.23;41.27
16613;BME280;8419;52.358;9.752;2023-02-22T08:22:23;100775.00;;;20.17;41.45
16613;BME280;8419;52.358;9.752;2023-02-22T08:25:12;100775.00;;;20.24;41.38
16613;BME280;8419;52.358;9.752;2023-02-22T08:28:01;100763.00;;;20.29;41.30
16613;BME280;8419;52.358;9.752;2023-02-22T08:30:46;100764.00;;;20.30;41.35
16613;BME280;8419;52.358;9.752;2023-02-22T08:33:33;100760.00;;;20.40;41.22
16613;BME280;8419;52.358;9.752;2023-02-22T08:36:19;100766.00;;;20.50;41.14
16613;BME280;8419;52.358;9.752;2023-02-22T08:39:05;100766.00;;;20.53;41.10
16613;BME280;8419;52.358;9.752;2023-02-22T08:41:51;100765.00;;;20.61;40.95
16613;BME280;8419;52.358;9.752;2023-02-22T08:44:37;100767.00;;;20.70;40.79
16613;BME280;8419;52.358;9.752;2023-02-22T08:47:23;100756.00;;;20.81;40.67
16613;BME280;8419;52.358;9.752;2023-02-22T08:50:16;100756.00;;;20.92;40.60
16613;BME280;8419;52.358;9.752;2023-02-22T08:53:04;100757.00;;;20.69;40.98
16613;BME280;8419;52.358;9.752;2023-02-22T08:55:49;100765.00;;;20.69;41.05
16613;BME280;8419;52.358;9.752;2023-02-22T08:58:35;100763.00;;;20.85;40.68
16613;BME280;8419;52.358;9.752;2023-02-22T09:01:21;100757.00;;;20.72;40.97
16613;BME280;8419;52.358;9.752;2023-02-22T09:04:08;100755.00;;;20.63;41.18
16613;BME280;8419;52.358;9.752;2023-02-22T09:06:54;100757.00;;;20.78;40.84
16613;BME280;8419;52.358;9.752;2023-02-22T09:09:40;100758.00;;;21.08;40.31
16613;BME280;8419;52.358;9.752;2023-02-22T09:12:26;100753.00;;;21.08;40.29
16613;BME280;8419;52.358;9.752;2023-02-22T09:15:12;100755.00;;;21.08;40.31
16613;BME280;8419;52.358;9.752;2023-02-22T09:17:57;100752.00;;;21.12;40.24
16613;BME280;8419;52.358;9.752;2023-02-22T09:20:43;100755.00;;;21.27;40.04
16613;BME280;8419;52.358;9.752;2023-02-22T09:23:28;100753.00;;;21.35;39.94
16613;BME280;8419;52.358;9.752;2023-02-22T09:26:14;100746.00;;;21.52;39.74
16613;BME280;8419;52.358;9.752;2023-02-22T09:29:01;100747.00;;;21.56;39.74
16613;BME280;8419;52.358;9.752;2023-02-22T09:31:46;100746.00;;;21.57;39.80
16613;BME280;8419;52.358;9.752;2023-02-22T09:34:31;100740.00;;;21.68;39.62
16613;BME280;8419;52.358;9.752;2023-02-22T09:37:22;100742.00;;;21.66;39.69
16613;BME280;8419;52.358;9.752;2023-02-22T09:40:14;100744.00;;;21.73;39.52
16613;BME280;8419;52.358;9.752;2023-02-22T09:43:20;100740.00;;;21.63;39.66
16613;BME280;8419;52.358;9.752;2023-02-22T09:49:35;100736.00;;;21.93;39.38
16613;BME280;8419;52.358;9.752;2023-02-22T09:52:25;100741.00;;;21.86;39.46
16613;BME280;8419;52.358;9.752;2023-02-22T09:55:23;100740.00;;;22.14;38.97
16613;BME280;8419;52.358;9.752;2023-02-22T09:58:19;100739.00;;;22.14;38.96
16613;BME280;8419;52.358;9.752;2023-02-22T10:01:17;100739.00;;;22.20;38.86
16613;BME280;8419;52.358;9.752;2023-02-22T10:04:12;100733.00;;;22.01;39.16
16613;BME280;8419;52.358;9.752;2023-02-22T10:07:08;100736.00;;;22.18;38.89
16613;BME280;8419;52.358;9.752;2023-02-22T10:09:57;100738.00;;;22.20;38.96
16613;BME280;8419;52.358;9.752;2023-02-22T10:12:55;100716.00;;;22.19;38.87
16613;BME280;8419;52.358;9.752;2023-02-22T10:15:50;100716.00;;;22.17;38.83
16613;BME280;8419;52.358;9.752;2023-02-22T10:19:08;100721.00;;;21.77;39.78
16613;BME280;8419;52.358;9.752;2023-02-22T10:22:06;100720.00;;;21.99;39.49
16613;BME280;8419;52.358;9.752;2023-02-22T10:25:00;100712.00;;;22.09;39.33
16613;BME280;8419;52.358;9.752;2023-02-22T10:27:54;100714.00;;;22.39;38.64
16613;BME280;8419;52.358;9.752;2023-02-22T10:30:44;100708.00;;;22.53;38.45
16613;BME280;8419;52.358;9.752;2023-02-22T10:33:41;100701.00;;;22.26;39.02
16613;BME280;8419;52.358;9.752;2023-02-22T10:36:31;100694.00;;;22.70;38.25
16613;BME280;8419;52.358;9.752;2023-02-22T10:39:26;100699.00;;;22.51;38.62
16613;BME280;8419;52.358;9.752;2023-02-22T10:42:13;100691.00;;;22.48;38.76
16613;BME280;8419;52.358;9.752;2023-02-22T10:45:00;100690.00;;;22.78;38.30
16613;BME280;8419;52.358;9.752;2023-02-22T10:47:46;100688.00;;;22.90;38.05
16613;BME280;8419;52.358;9.752;2023-02-22T10:50:33;100683.00;;;23.06;37.84
16613;BME280;8419;52.358;9.752;2023-02-22T10:53:19;100683.00;;;23.22;37.61
16613;BME280;8419;52.358;9.752;2023-02-22T10:56:08;100685.00;;;23.28;37.64
16613;BME280;8419;52.358;9.752;2023-02-22T10:58:58;100687.00;;;23.44;37.35
16613;BME280;8419;52.358;9.752;2023-02-22T11:01:46;100675.00;;;23.56;37.19
16613;BME280;8419;52.358;9.752;2023-02-22T11:04:44;100671.00;;;23.68;37.04
16613;BME280;8419;52.358;9.752;2023-02-22T11:07:32;100668.00;;;23.74;36.90
16613;BME280;8419;52.358;9.752;2023-02-22T11:10:31;100667.00;;;23.72;36.85
16613;BME280;8419;52.358;9.752;2023-02-22T11:13:28;100663.00;;;23.86;36.73
16613;BME280;8419;52.358;9.752;2023-02-22T11:16:19;100665.00;;;24.02;36.50
16613;BME280;8419;52.358;9.752;2023-02-22T11:19:19;100658.00;;;24.10;36.40
16613;BME280;8419;52.358;9.752;2023-02-22T11:22:11;100661.00;;;24.09;36.40
16613;BME280;8419;52.358;9.752;2023-02-22T11:25:01;100655.00;;;24.25;36.10
16613;BME280;8419;52.358;9.752;2023-02-22T11:27:47;100652.00;;;24.29;36.07
16613;BME280;8419;52.358;9.752;2023-02-22T11:30:33;100651.00;;;24.40;35.91
16613;BME280;8419;52.358;9.752;2023-02-22T11:33:21;100642.00;;;24.45;35.67
16613;BME280;8419;52.358;9.752;2023-02-22T11:36:08;100638.00;;;24.44;35.60
16613;BME280;8419;52.358;9.752;2023-02-22T11:38:55;100637.00;;;24.33;35.80
16613;BME280;8419;52.358;9.752;2023-02-22T11:41:44;100623.00;;;24.38;35.75
16613;BME280;8419;52.358;9.752;2023-02-22T11:44:31;100629.00;;;24.50;35.60
16613;BME280;8419;52.358;9.752;2023-02-22T11:47:17;100618.00;;;24.51;35.54
16613;BME280;8419;52.358;9.752;2023-02-22T11:50:10;100619.00;;;24.47;35.53
16613;BME280;8419;52.358;9.752;2023-02-22T11:53:17;100618.00;;;24.68;35.24
16613;BME280;8419;52.358;9.752;2023-02-22T11:56:13;100620.00;;;24.65;35.29
16613;BME280;8419;52.358;9.752;2023-02-22T11:59:11;100608.00;;;24.53;35.44
16613;BME280;8419;52.358;9.752;2023-02-22T12:02:12;100613.00;;;24.53;35.33
16613;BME280;8419;52.358;9.752;2023-02-22T12:05:15;100608.00;;;24.20;35.83
16613;BME280;8419;52.358;9.752;2023-02-22T12:08:16;100613.00;;;24.45;35.50
16613;BME280;8419;52.358;9.752;2023-02-22T12:11:12;100610.00;;;24.66;35.32
16613;BME280;8419;52.358;9.752;2023-02-22T12:14:15;100611.00;;;25.06;34.67
16613;BME280;8419;52.358;9.752;2023-02-22T12:17:16;100611.00;;;25.12;34.56
16613;BME280;8419;52.358;9.752;2023-02-22T12:20:13;100601.00;;;25.08;34.57
16613;BME280;8419;52.358;9.752;2023-02-22T12:23:13;100600.00;;;24.89;34.81
16613;BME280;8419;52.358;9.752;2023-02-22T12:26:04;100603.00;;;24.98;34.58
16613;BME280;8419;52.358;9.752;2023-02-22T12:28:56;100591.00;;;24.93;34.78
16613;BME280;8419;52.358;9.752;2023-02-22T12:31:46;100595.00;;;25.12;34.28
16613;BME280;8419;52.358;9.752;2023-02-22T12:34:39;100594.00;;;25.10;34.39
16613;BME280;8419;52.358;9.752;2023-02-22T12:37:30;100584.00;;;25.28;34.13
16613;BME280;8419;52.358;9.752;2023-02-22T12:40:25;100594.00;;;25.31;34.23
16613;BME280;8419;52.358;9.752;2023-02-22T12:43:15;100579.00;;;25.64;33.76
16613;BME280;8419;52.358;9.752;2023-02-22T12:46:09;100576.00;;;25.92;33.37
16613;BME280;8419;52.358;9.752;2023-02-22T12:49:11;100581.00;;;26.01;33.26
16613;BME280;8419;52.358;9.752;2023-02-22T12:52:06;100572.00;;;26.27;33.02
16613;BME280;8419;52.358;9.752;2023-02-22T12:54:58;100569.00;;;26.41;32.79
16613;BME280;8419;52.358;9.752;2023-02-22T12:57:52;100567.00;;;26.43;32.72
16613;BME280;8419;52.358;9.752;2023-02-22T13:00:45;100557.00;;;26.39;32.83
16613;BME280;8419;52.358;9.752;2023-02-22T13:03:35;100566.00;;;26.41;32.71
16613;BME280;8419;52.358;9.752;2023-02-22T13:06:30;100556.00;;;26.39;32.75
16613;BME280;8419;52.358;9.752;2023-02-22T13:09:35;100562.00;;;26.42;32.63
16613;BME280;8419;52.358;9.752;2023-02-22T13:12:29;100558.00;;;26.55;32.43
16613;BME280;8419;52.358;9.752;2023-02-22T13:15:22;100551.00;;;26.58;32.30
16613;BME280;8419;52.358;9.752;2023-02-22T13:18:13;100544.00;;;26.88;31.88
16613;BME280;8419;52.358;9.752;2023-02-22T13:21:05;100544.00;;;26.90;31.89
16613;BME280;8419;52.358;9.752;2023-02-22T13:23:58;100538.00;;;27.16;31.54
16613;BME280;8419;52.358;9.752;2023-02-22T13:26:52;100531.00;;;27.10;31.55
16613;BME280;8419;52.358;9.752;2023-02-22T13:29:40;100527.00;;;27.12;31.53
16613;BME280;8419;52.358;9.752;2023-02-22T13:32:35;100527.00;;;27.25;31.30
16613;BME280;8419;52.358;9.752;2023-02-22T13:35:35;100521.00;;;27.28;31.24
16613;BME280;8419;52.358;9.752;2023-02-22T13:38:45;100519.00;;;27.30;31.24
16613;BME280;8419;52.358;9.752;2023-02-22T13:41:45;100517.00;;;27.24;31.24
16613;BME280;8419;52.358;9.752;2023-02-22T13:52:06;100511.00;;;26.88;31.47
16613;BME280;8419;52.358;9.752;2023-02-22T13:54:56;100505.00;;;27.09;31.21
16613;BME280;8419;52.358;9.752;2023-02-22T13:57:46;100501.00;;;27.23;31.05
16613;BME280;8419;52.358;9.752;2023-02-22T14:00:47;100496.00;;;27.34;30.96
16613;BME280;8419;52.358;9.752;2023-02-22T14:03:40;100499.00;;;27.49;30.82
16613;BME280;8419;52.358;9.752;2023-02-22T14:06:38;100503.00;;;27.57;30.72
16613;BME280;8419;52.358;9.752;2023-02-22T14:09:43;100498.00;;;27.74;30.55
16613;BME280;8419;52.358;9.752;2023-02-22T14:12:47;100495.00;;;27.60;30.82
16613;BME280;8419;52.358;9.752;2023-02-22T14:15:33;100497.00;;;27.58;30.92
16613;BME280;8419;52.358;9.752;2023-02-22T14:18:19;100495.00;;;27.52;30.79
16613;BME280;8419;52.358;9.752;2023-02-22T14:21:06;100493.00;;;27.41;30.83
16613;BME280;8419;52.358;9.752;2023-02-22T14:23:53;100488.00;;;27.31;30.88
16613;BME280;8419;52.358;9.752;2023-02-22T14:26:43;100493.00;;;27.26;30.96
16613;BME280;8419;52.358;9.752;2023-02-22T14:29:50;100481.00;;;27.37;30.83
16613;BME280;8419;52.358;9.752;2023-02-22T14:32:38;100474.00;;;27.65;30.57
16613;BME280;8419;52.358;9.752;2023-02-22T14:35:24;100481.00;;;27.72;30.34
16613;BME280;8419;52.358;9.752;2023-02-22T14:38:17;100479.00;;;27.74;30.32
16613;BME280;8419;52.358;9.752;2023-02-22T14:41:07;100473.00;;;27.81;30.27
16613;BME280;8419;52.358;9.752;2023-02-22T14:43:54;100479.00;;;27.68;30.41
16613;BME280;8419;52.358;9.752;2023-02-22T14:46:44;100470.00;;;27.72;30.31
16613;BME280;8419;52.358;9.752;2023-02-22T14:49:39;100468.00;;;27.58;30.48
16613;BME280;8419;52.358;9.752;2023-02-22T14:52:28;100473.00;;;27.55;30.49
16613;BME280;8419;52.358;9.752;2023-02-22T14:55:19;100463.00;;;27.52;30.47
16613;BME280;8419;52.358;9.752;2023-02-22T14:58:11;100464.00;;;27.59;30.31
16613;BME280;8419;52.358;9.752;2023-02-22T15:01:20;100461.00;;;27.64;30.20
16613;BME280;8419;52.358;9.752;2023-02-22T15:04:21;100456.00;;;27.61;30.29
16613;BME280;8419;52.358;9.752;2023-02-22T15:07:20;100463.00;;;27.56;30.32
16613;BME280;8419;52.358;9.752;2023-02-22T15:10:25;100461.00;;;27.29;30.63
16613;BME280;8419;52.358;9.752;2023-02-22T15:13:17;100460.00;;;27.12;30.79